createdAt,value
2023-06-03T00:01:43.156Z,59.59
2023-06-03T00:04:16.690Z,59.88
2023-06-03T00:06:38.112Z,60.05
2023-06-03T00:08:57.811Z,60.61
2023-06-03T00:11:21.411Z,60.73
2023-06-03T00:13:45.564Z,60.73
2023-06-03T00:16:04.437Z,59.53
2023-06-03T00:18:20.654Z,59.60
2023-06-03T00:20:42.848Z,59.21
2023-06-03T00:23:00.867Z,59.51
2023-06-03T00:25:21.875Z,59.40
2023-06-03T00:27:51.483Z,59.64
2023-06-03T00:30:15.816Z,59.05
2023-06-03T00:32:39.651Z,58.31
2023-06-03T00:35:03.767Z,58.22
2023-06-03T00:37:28.209Z,57.66
2023-06-03T00:39:50.821Z,57.99
2023-06-03T00:42:08.172Z,57.73
2023-06-03T00:44:25.309Z,57.06
2023-06-03T00:46:42.638Z,57.42
2023-06-03T00:49:13.781Z,56.88
2023-06-03T00:51:38.094Z,57.15
2023-06-03T00:54:03.840Z,57.76
2023-06-03T00:56:26.010Z,57.40
2023-06-03T00:58:42.837Z,57.41
2023-06-03T01:01:14.902Z,57.48
2023-06-03T01:03:37.279Z,57.93
2023-06-03T01:06:16.804Z,57.78
2023-06-03T01:08:46.257Z,58.21
2023-06-03T01:11:10.066Z,58.06
2023-06-03T01:13:44.397Z,58.03
2023-06-03T01:16:15.709Z,57.74
2023-06-03T01:18:47.671Z,58.19
2023-06-03T01:21:16.238Z,58.49
2023-06-03T01:23:37.511Z,58.70
2023-06-03T01:26:02.818Z,58.56
2023-06-03T01:28:26.153Z,58.41
2023-06-03T01:30:56.687Z,58.26
2023-06-03T01:33:28.814Z,58.35
2023-06-03T01:35:52.742Z,58.15
2023-06-03T01:38:24.582Z,58.37
2023-06-03T01:40:48.691Z,58.49
2023-06-03T01:43:13.236Z,58.45
2023-06-03T01:45:43.572Z,58.69
2023-06-03T01:48:05.683Z,58.41
2023-06-03T01:50:22.686Z,58.49
2023-06-03T01:52:52.175Z,58.79
2023-06-03T01:55:14.969Z,58.64
2023-06-03T01:57:44.056Z,58.42
2023-06-03T02:00:08.775Z,58.49
2023-06-03T02:02:25.400Z,58.80
2023-06-03T02:04:38.881Z,58.97
2023-06-03T02:07:10.495Z,59.01
2023-06-03T02:09:32.292Z,58.70
2023-06-03T02:11:49.703Z,58.70
2023-06-03T02:14:06.285Z,58.96
2023-06-03T02:16:22.758Z,58.77
2023-06-03T02:18:46.117Z,58.55
2023-06-03T02:21:14.165Z,58.61
2023-06-03T02:23:35.535Z,58.59
2023-06-03T02:25:53.067Z,58.54
2023-06-03T02:28:10.382Z,58.63
2023-06-03T02:30:27.795Z,58.68
2023-06-03T02:32:42.156Z,58.79
2023-06-03T02:35:04.131Z,58.66
2023-06-03T02:37:30.249Z,58.93
2023-06-03T02:39:49.847Z,59.03
2023-06-03T02:42:21.075Z,58.97
2023-06-03T02:44:41.481Z,58.74
2023-06-03T02:47:15.705Z,58.91
2023-06-03T02:49:39.916Z,59.31
2023-06-03T02:52:04.366Z,59.60
2023-06-03T02:54:33.604Z,59.39
2023-06-03T02:56:57.727Z,59.50
2023-06-03T02:59:22.849Z,59.08
2023-06-03T03:01:53.731Z,59.28
2023-06-03T03:04:25.706Z,59.38
2023-06-03T03:06:56.615Z,59.86
2023-06-03T03:09:28.278Z,59.93
2023-06-03T03:11:52.501Z,59.96
2023-06-03T03:14:07.668Z,59.76
2023-06-03T03:16:20.644Z,59.83
2023-06-03T03:18:33.408Z,59.78
2023-06-03T03:20:45.033Z,59.84
2023-06-03T03:22:57.891Z,60.04
2023-06-03T03:25:10.164Z,60.25
2023-06-03T03:27:26.447Z,60.36
2023-06-03T03:29:41.364Z,60.63
2023-06-03T03:31:54.523Z,60.60
2023-06-03T03:34:07.582Z,60.47
2023-06-03T03:36:22.816Z,60.65
2023-06-03T03:38:37.471Z,60.70
2023-06-03T03:40:48.754Z,60.55
2023-06-03T03:43:01.146Z,60.48
2023-06-03T03:45:20.191Z,60.44
2023-06-03T03:47:35.270Z,60.41
2023-06-03T03:49:47.104Z,60.13
2023-06-03T03:51:59.936Z,60.14
2023-06-03T03:54:12.162Z,60.24
2023-06-03T03:56:25.403Z,60.40
2023-06-03T03:58:47.243Z,60.49
2023-06-03T04:01:06.928Z,60.70
2023-06-03T04:03:20.454Z,60.83
2023-06-03T04:05:32.297Z,60.85
2023-06-03T04:07:48.910Z,60.94
2023-06-03T04:10:03.672Z,60.90
2023-06-03T04:12:29.628Z,60.93
2023-06-03T04:14:52.607Z,60.97
2023-06-03T04:17:11.869Z,61.07
2023-06-03T04:19:33.335Z,61.20
2023-06-03T04:21:53.875Z,61.36
2023-06-03T04:24:08.614Z,61.46
2023-06-03T04:26:23.441Z,61.53
2023-06-03T04:28:42.063Z,61.63
2023-06-03T04:30:54.500Z,61.76
2023-06-03T04:33:14.459Z,61.88
2023-06-03T04:35:29.951Z,61.97
2023-06-03T04:37:41.681Z,62.19
2023-06-03T04:39:54.829Z,62.22
2023-06-03T04:42:10.705Z,62.37
2023-06-03T04:44:23.578Z,62.51
2023-06-03T04:46:34.895Z,62.76
2023-06-03T04:48:47.930Z,62.96
2023-06-03T04:50:59.850Z,63.05
2023-06-03T04:53:12.027Z,63.28
2023-06-03T04:55:24.232Z,63.37
2023-06-03T04:57:35.365Z,63.52
2023-06-03T04:59:47.092Z,63.65
2023-06-03T05:02:03.562Z,63.67
2023-06-03T05:04:22.440Z,63.81
2023-06-03T05:06:38.860Z,64.04
2023-06-03T05:08:51.866Z,64.19
2023-06-03T05:11:08.430Z,64.36
2023-06-03T05:13:20.868Z,64.48
2023-06-03T05:15:32.153Z,64.54
2023-06-03T05:17:44.828Z,64.64
2023-06-03T05:19:57.224Z,64.68
2023-06-03T05:22:09.301Z,64.97
2023-06-03T05:24:21.111Z,65.13
2023-06-03T05:26:33.710Z,65.19
2023-06-03T05:28:46.129Z,65.34
2023-06-03T05:30:57.194Z,65.42
2023-06-03T05:33:09.404Z,65.52
2023-06-03T05:35:26.322Z,65.66
2023-06-03T05:37:41.131Z,65.75
2023-06-03T05:39:56.381Z,65.90
2023-06-03T05:42:08.572Z,66.01
2023-06-03T05:44:20.490Z,66.05
2023-06-03T05:46:32.986Z,66.02
2023-06-03T05:48:45.479Z,66.29
2023-06-03T05:50:57.731Z,66.43
2023-06-03T05:53:12.431Z,66.50
2023-06-03T05:55:24.879Z,66.64
2023-06-03T05:57:38.373Z,66.71
2023-06-03T05:59:51.632Z,66.88
2023-06-03T06:02:03.377Z,66.87
2023-06-03T06:04:14.574Z,67.05
2023-06-03T06:06:27.731Z,67.11
2023-06-03T06:08:47.122Z,67.33
2023-06-03T06:11:18.120Z,67.46
2023-06-03T06:13:36.926Z,67.39
2023-06-03T06:16:06.439Z,67.62
2023-06-03T06:18:38.899Z,67.80
2023-06-03T06:20:55.238Z,67.91
2023-06-03T06:23:19.100Z,67.99
2023-06-03T06:25:42.460Z,68.08
2023-06-03T06:28:13.478Z,68.08
2023-06-03T06:30:37.609Z,68.20
2023-06-03T06:33:08.187Z,68.37
2023-06-03T06:35:31.715Z,68.54
2023-06-03T06:37:51.889Z,68.51
2023-06-03T06:40:34.823Z,68.62
2023-06-03T06:43:05.951Z,68.70
2023-06-03T06:45:43.387Z,68.84
2023-06-03T06:48:12.613Z,68.92
2023-06-03T06:50:41.888Z,68.99
2023-06-03T06:53:12.880Z,69.26
2023-06-03T06:55:50.117Z,69.32
2023-06-03T06:58:13.981Z,69.28
2023-06-03T07:00:45.162Z,69.55
2023-06-03T07:03:06.869Z,69.59
2023-06-03T07:05:25.332Z,69.79
2023-06-03T07:07:50.699Z,69.94
2023-06-03T07:10:25.787Z,70.04
2023-06-03T07:12:58.355Z,70.27
2023-06-03T07:15:30.709Z,70.29
2023-06-03T07:18:02.165Z,70.62
2023-06-03T07:20:35.263Z,70.69
2023-06-03T07:23:06.491Z,70.86
2023-06-03T07:25:38.771Z,71.00
2023-06-03T07:28:12.581Z,71.17
2023-06-03T07:30:43.458Z,70.96
2023-06-03T07:33:16.528Z,70.98
2023-06-03T07:35:47.517Z,71.02
2023-06-03T07:38:38.548Z,71.21
2023-06-03T07:40:58.934Z,71.29
2023-06-03T07:43:30.015Z,71.38
2023-06-03T07:45:53.974Z,71.45
2023-06-03T07:48:24.469Z,71.55
2023-06-03T07:50:54.906Z,71.77
2023-06-03T07:53:26.995Z,71.91
2023-06-03T07:55:58.247Z,72.09
2023-06-03T07:58:21.888Z,72.36
2023-06-03T08:00:54.434Z,72.29
2023-06-03T08:03:21.005Z,72.51
2023-06-03T08:05:53.140Z,72.52
2023-06-03T08:08:28.414Z,72.78
2023-06-03T08:10:59.158Z,72.84
2023-06-03T08:13:30.472Z,72.96
2023-06-03T08:16:01.766Z,72.93
2023-06-03T08:18:41.859Z,72.93
2023-06-03T08:21:11.684Z,73.02
2023-06-03T08:23:36.087Z,73.00
2023-06-03T08:26:05.454Z,73.10
2023-06-03T08:28:25.549Z,73.07
2023-06-03T08:30:42.357Z,73.35
2023-06-03T08:33:14.010Z,73.48
2023-06-03T08:35:28.915Z,73.59
2023-06-03T08:38:00.173Z,73.77
2023-06-03T08:40:17.969Z,73.94
2023-06-03T08:42:49.186Z,74.10
2023-06-03T08:45:10.076Z,73.99
2023-06-03T08:47:40.141Z,74.11
2023-06-03T08:50:07.089Z,74.14
2023-06-03T08:52:34.932Z,74.04
2023-06-03T08:55:00.757Z,74.14
2023-06-03T08:57:25.039Z,74.12
2023-06-03T08:59:57.661Z,74.06
2023-06-03T09:02:29.936Z,74.07
2023-06-03T09:04:57.537Z,74.31
2023-06-03T09:07:19.071Z,74.18
2023-06-03T09:09:48.156Z,74.26
2023-06-03T09:12:13.185Z,74.35
2023-06-03T09:14:37.879Z,74.30
2023-06-03T09:17:03.150Z,74.41
2023-06-03T09:19:30.494Z,74.40
2023-06-03T09:21:47.711Z,74.45
2023-06-03T09:24:18.760Z,74.47
2023-06-03T09:26:42.820Z,74.50
2023-06-03T09:29:03.670Z,74.48
2023-06-03T09:31:33.414Z,74.48
2023-06-03T09:34:04.512Z,74.57
2023-06-03T09:36:47.316Z,74.63
2023-06-03T09:39:13.118Z,74.77
2023-06-03T09:41:28.758Z,74.93
2023-06-03T09:44:12.651Z,74.94
2023-06-03T09:46:44.720Z,74.91
2023-06-03T09:49:28.214Z,74.94
2023-06-03T09:52:11.946Z,75.12
2023-06-03T09:54:31.635Z,75.33
2023-06-03T09:56:53.458Z,75.32
2023-06-03T09:59:25.976Z,75.38
2023-06-03T10:01:56.364Z,75.47
2023-06-03T10:04:15.247Z,75.44
2023-06-03T10:06:37.817Z,75.52
2023-06-03T10:09:21.638Z,75.73
2023-06-03T10:11:52.626Z,75.81
2023-06-03T10:14:11.118Z,75.85
2023-06-03T10:16:25.380Z,75.79
2023-06-03T10:18:54.787Z,75.89
2023-06-03T10:21:21.167Z,75.96
2023-06-03T10:23:45.902Z,76.01
2023-06-03T10:26:18.604Z,76.21
2023-06-03T10:28:42.862Z,76.27
2023-06-03T10:31:15.227Z,76.36
2023-06-03T10:33:34.569Z,76.40
2023-06-03T10:36:06.554Z,76.30
2023-06-03T10:38:29.930Z,76.47
2023-06-03T10:40:54.573Z,76.57
2023-06-03T10:43:23.031Z,76.68
2023-06-03T10:45:55.309Z,76.81
2023-06-03T10:48:17.299Z,76.83
2023-06-03T10:50:57.377Z,77.14
2023-06-03T10:53:32.377Z,77.25
2023-06-03T10:56:06.518Z,77.33
2023-06-03T10:58:37.338Z,77.32
2023-06-03T11:01:00.809Z,77.39
2023-06-03T11:03:20.350Z,77.53
2023-06-03T11:05:38.190Z,77.54
2023-06-03T11:08:03.032Z,77.38
2023-06-03T11:10:43.390Z,77.48
2023-06-03T11:13:17.333Z,77.41
2023-06-03T11:15:49.450Z,77.41
2023-06-03T11:18:21.327Z,77.24
2023-06-03T11:20:46.610Z,77.35
2023-06-03T11:23:06.109Z,77.65
2023-06-03T11:25:40.789Z,77.89
2023-06-03T11:28:24.270Z,78.04
2023-06-03T11:30:59.686Z,78.25
2023-06-03T11:33:16.349Z,78.23
2023-06-03T11:35:47.038Z,78.27
2023-06-03T11:38:07.011Z,78.39
2023-06-03T11:40:49.298Z,78.32
2023-06-03T11:43:16.825Z,78.38
2023-06-03T11:45:34.524Z,78.28
2023-06-03T11:48:08.070Z,78.11
2023-06-03T11:50:49.157Z,78.42
2023-06-03T11:53:13.899Z,78.31
2023-06-03T11:55:45.438Z,78.35
2023-06-03T11:58:16.740Z,78.29
2023-06-03T12:00:47.903Z,78.42
2023-06-03T12:03:20.279Z,78.39
2023-06-03T12:05:35.579Z,78.35
2023-06-03T12:08:07.824Z,78.18
2023-06-03T12:10:21.934Z,78.31
2023-06-03T12:12:52.707Z,78.30
2023-06-03T12:15:13.696Z,78.34
2023-06-03T12:17:44.274Z,78.35
2023-06-03T12:20:05.923Z,78.54
2023-06-03T12:22:36.553Z,78.54
2023-06-03T12:25:00.499Z,78.63
2023-06-03T12:27:26.572Z,78.80
2023-06-03T12:29:59.154Z,78.85
2023-06-03T12:32:19.574Z,78.85
2023-06-03T12:34:52.550Z,78.97
2023-06-03T12:37:40.872Z,79.38
2023-06-03T12:40:06.692Z,79.27
2023-06-03T12:42:38.098Z,79.49
2023-06-03T12:44:58.699Z,79.59
2023-06-03T12:47:30.781Z,79.75
2023-06-03T12:50:07.010Z,79.91
2023-06-03T12:52:39.463Z,80.02
2023-06-03T12:55:04.232Z,80.14
2023-06-03T12:57:24.031Z,80.04
2023-06-03T13:00:08.990Z,79.90
2023-06-03T13:02:35.093Z,80.15
2023-06-03T13:04:59.958Z,80.23
2023-06-03T13:07:25.931Z,80.08
2023-06-03T13:09:49.019Z,79.99
2023-06-03T13:12:15.676Z,80.09
2023-06-03T13:14:41.156Z,80.00
2023-06-03T13:17:12.385Z,80.12
2023-06-03T13:19:39.380Z,80.06
2023-06-03T13:22:12.764Z,80.15
2023-06-03T13:24:44.853Z,80.08
2023-06-03T13:27:09.305Z,80.32
2023-06-03T13:29:40.615Z,80.56
2023-06-03T13:32:05.700Z,80.69
2023-06-03T13:34:24.136Z,80.72
2023-06-03T13:36:50.530Z,80.95
2023-06-03T13:39:15.255Z,81.39
2023-06-03T13:41:41.576Z,81.46
2023-06-03T13:44:01.575Z,81.38
2023-06-03T13:46:33.334Z,81.46
2023-06-03T13:48:53.376Z,81.55
2023-06-03T13:51:16.797Z,81.58
2023-06-03T13:53:42.045Z,81.74
2023-06-03T13:56:13.996Z,81.57
2023-06-03T13:58:35.939Z,81.75
2023-06-03T14:01:00.464Z,81.92
2023-06-03T14:03:32.214Z,82.37
2023-06-03T14:06:02.904Z,82.92
2023-06-03T14:08:21.618Z,83.51
2023-06-03T14:10:52.944Z,83.85
2023-06-03T14:13:15.685Z,83.93
2023-06-03T14:15:38.443Z,84.23
2023-06-03T14:17:58.922Z,84.42
2023-06-03T14:20:24.028Z,84.68
2023-06-03T14:22:47.624Z,84.63
2023-06-03T14:25:19.287Z,84.55
2023-06-03T14:27:48.996Z,84.69
2023-06-03T14:30:19.651Z,84.49
2023-06-03T14:32:42.674Z,84.24
2023-06-03T14:35:09.979Z,84.22
2023-06-03T14:37:41.308Z,83.89
2023-06-03T14:40:13.942Z,83.46
2023-06-03T14:42:38.934Z,83.14
2023-06-03T14:45:03.380Z,82.70
2023-06-03T14:47:22.849Z,82.76
2023-06-03T14:49:42.784Z,82.79
2023-06-03T14:52:00.074Z,82.31
2023-06-03T14:54:27.811Z,81.67
2023-06-03T14:56:41.914Z,80.99
2023-06-03T14:59:00.070Z,80.81
2023-06-03T15:01:28.657Z,80.00
2023-06-03T15:03:51.939Z,79.35
2023-06-03T15:06:21.269Z,78.82
2023-06-03T15:08:56.410Z,78.44
2023-06-03T15:11:25.050Z,77.71
2023-06-03T15:13:49.899Z,77.76
2023-06-03T15:16:21.395Z,77.39
2023-06-03T15:18:53.870Z,76.65
2023-06-03T15:21:16.499Z,75.90
2023-06-03T15:23:36.618Z,75.30
2023-06-03T15:26:02.409Z,74.84
2023-06-03T15:28:21.307Z,74.02
2023-06-03T15:30:52.360Z,73.96
2023-06-03T15:33:16.402Z,73.74
2023-06-03T15:35:39.339Z,73.52
2023-06-03T15:38:11.278Z,73.33
2023-06-03T15:40:26.028Z,73.25
2023-06-03T15:42:48.801Z,73.68
2023-06-03T15:45:13.919Z,73.66
2023-06-03T15:47:30.813Z,73.12
2023-06-03T15:49:53.570Z,73.34
2023-06-03T15:52:16.010Z,73.68
2023-06-03T15:54:36.440Z,73.26
2023-06-03T15:57:00.675Z,72.43
2023-06-03T15:59:24.544Z,72.20
2023-06-03T16:01:40.716Z,71.91
2023-06-03T16:03:53.014Z,70.48
2023-06-03T16:06:15.965Z,69.98
2023-06-03T16:08:37.023Z,68.45
2023-06-03T16:10:57.822Z,65.83
2023-06-03T16:13:19.829Z,66.34
2023-06-03T16:15:50.230Z,65.60
2023-06-03T16:18:12.392Z,66.09
2023-06-03T16:20:29.803Z,65.80
2023-06-03T16:22:53.415Z,66.97
2023-06-03T16:25:12.958Z,67.03
2023-06-03T16:27:26.792Z,67.49
2023-06-03T16:29:44.315Z,67.44
2023-06-03T16:32:02.989Z,67.33
2023-06-03T16:34:23.408Z,67.81
2023-06-03T16:36:43.379Z,67.84
2023-06-03T16:39:07.182Z,68.42
2023-06-03T16:41:38.771Z,69.13
2023-06-03T16:43:58.856Z,69.26
2023-06-03T16:46:16.030Z,69.69
2023-06-03T16:48:47.649Z,70.28
2023-06-03T16:51:02.135Z,70.00
2023-06-03T16:53:22.285Z,69.70
2023-06-03T16:55:53.541Z,70.07
2023-06-03T16:58:21.832Z,69.75
2023-06-03T17:00:52.989Z,70.03
2023-06-03T17:03:25.795Z,70.38
2023-06-03T17:05:57.904Z,69.73
2023-06-03T17:08:16.613Z,69.10
2023-06-03T17:10:35.944Z,68.99
2023-06-03T17:12:53.546Z,68.94
2023-06-03T17:15:17.726Z,69.10
2023-06-03T17:17:41.252Z,68.97
2023-06-03T17:20:03.953Z,67.91
2023-06-03T17:22:21.733Z,68.04
2023-06-03T17:24:44.426Z,67.36
2023-06-03T17:27:01.079Z,67.64
2023-06-03T17:29:25.021Z,67.48
2023-06-03T17:31:51.050Z,67.00
2023-06-03T17:34:08.819Z,66.55
2023-06-03T17:36:22.813Z,66.90
2023-06-03T17:38:44.689Z,66.97
2023-06-03T17:41:08.353Z,66.85
2023-06-03T17:43:23.061Z,65.97
2023-06-03T17:45:44.067Z,66.11
2023-06-03T17:48:15.469Z,66.11
2023-06-03T17:50:44.776Z,66.22
2023-06-03T17:53:04.693Z,66.62
2023-06-03T17:55:25.381Z,66.49
2023-06-03T17:57:46.545Z,66.31
2023-06-03T18:00:15.517Z,66.09
2023-06-03T18:02:27.456Z,66.11
2023-06-03T18:04:51.421Z,65.93
2023-06-03T18:07:10.878Z,66.17
2023-06-03T18:09:29.668Z,66.27
2023-06-03T18:11:52.452Z,66.26
2023-06-03T18:14:12.831Z,66.14
2023-06-03T18:16:37.397Z,66.03
2023-06-03T18:19:01.216Z,66.17
2023-06-03T18:21:15.040Z,66.08
2023-06-03T18:23:33.343Z,65.94
2023-06-03T18:26:10.515Z,65.92
2023-06-03T18:28:50.970Z,65.78
2023-06-03T18:31:21.490Z,65.81
2023-06-03T18:33:37.748Z,65.20
2023-06-03T18:36:09.218Z,65.10
2023-06-03T18:38:39.629Z,64.93
2023-06-03T18:40:58.016Z,65.39
2023-06-03T18:43:29.970Z,65.26
2023-06-03T18:46:02.112Z,65.50
2023-06-03T18:48:25.551Z,65.77
2023-06-03T18:50:48.189Z,66.10
2023-06-03T18:53:03.590Z,65.80
2023-06-03T18:55:25.373Z,65.77
2023-06-03T18:57:49.857Z,65.13
2023-06-03T19:00:08.478Z,65.10
2023-06-03T19:02:25.454Z,65.30
2023-06-03T19:04:48.010Z,64.87
2023-06-03T19:07:04.124Z,64.77
2023-06-03T19:09:32.785Z,64.78
2023-06-03T19:11:50.312Z,65.31
2023-06-03T19:14:13.752Z,64.49
2023-06-03T19:16:48.686Z,63.97
2023-06-03T19:19:11.093Z,64.01
2023-06-03T19:21:41.986Z,64.05
2023-06-03T19:23:59.051Z,64.20
2023-06-03T19:26:13.306Z,64.15
2023-06-03T19:28:34.085Z,63.71
2023-06-03T19:31:05.541Z,63.93
2023-06-03T19:33:20.186Z,64.08
2023-06-03T19:35:44.816Z,63.98
2023-06-03T19:38:07.597Z,63.72
2023-06-03T19:40:30.135Z,63.84
2023-06-03T19:42:51.545Z,64.22
2023-06-03T19:45:15.930Z,64.00
2023-06-03T19:47:31.439Z,64.52
2023-06-03T19:49:45.383Z,64.07
2023-06-03T19:52:15.156Z,64.57
2023-06-03T19:54:44.147Z,64.47
2023-06-03T19:57:15.429Z,63.90
2023-06-03T19:59:48.089Z,64.28
2023-06-03T20:02:12.641Z,64.50
2023-06-03T20:04:31.862Z,64.54
2023-06-03T20:07:03.822Z,64.57
2023-06-03T20:09:34.625Z,64.98
2023-06-03T20:11:59.229Z,64.99
2023-06-03T20:14:29.962Z,65.36
2023-06-03T20:16:52.712Z,65.70
2023-06-03T20:19:14.376Z,65.85
2023-06-03T20:21:46.293Z,65.82
2023-06-03T20:24:07.901Z,66.48
2023-06-03T20:26:39.446Z,66.20
2023-06-03T20:29:11.736Z,66.23
2023-06-03T20:31:29.086Z,66.02
2023-06-03T20:33:54.367Z,65.91
2023-06-03T20:36:14.344Z,65.52
2023-06-03T20:38:37.738Z,65.84
2023-06-03T20:41:00.824Z,65.63
2023-06-03T20:43:32.605Z,66.00
2023-06-03T20:45:55.396Z,65.84
2023-06-03T20:48:19.916Z,65.90
2023-06-03T20:50:50.340Z,65.82
2023-06-03T20:53:22.114Z,65.96
2023-06-03T20:55:54.216Z,66.03
2023-06-03T20:58:25.212Z,66.23
2023-06-03T21:00:56.205Z,66.41
2023-06-03T21:03:27.549Z,66.90
2023-06-03T21:05:59.269Z,67.18
2023-06-03T21:08:30.984Z,67.11
2023-06-03T21:10:56.695Z,66.86
2023-06-03T21:13:22.915Z,67.26
2023-06-03T21:15:40.651Z,67.51
2023-06-03T21:17:58.803Z,67.18
2023-06-03T21:20:30.808Z,66.88
2023-06-03T21:22:46.815Z,66.79
2023-06-03T21:25:17.525Z,66.76
2023-06-03T21:27:36.895Z,66.33
2023-06-03T21:30:00.686Z,67.18
2023-06-03T21:32:20.468Z,67.36
2023-06-03T21:34:51.552Z,66.84
2023-06-03T21:37:22.428Z,66.99
2023-06-03T21:39:53.239Z,67.39
2023-06-03T21:42:23.758Z,67.53
2023-06-03T21:44:54.358Z,67.83
2023-06-03T21:47:25.507Z,67.31
2023-06-03T21:49:48.724Z,67.07
2023-06-03T21:52:20.155Z,67.51
2023-06-03T21:54:51.383Z,68.26
2023-06-03T21:57:12.369Z,68.05
2023-06-03T21:59:43.747Z,67.95
2023-06-03T22:02:25.831Z,68.20
2023-06-03T22:04:56.818Z,67.99
2023-06-03T22:07:27.589Z,67.81
2023-06-03T22:09:58.552Z,68.22
2023-06-03T22:12:29.217Z,67.52
2023-06-03T22:14:55.100Z,67.23
2023-06-03T22:17:13.330Z,67.48
2023-06-03T22:19:37.586Z,67.28
2023-06-03T22:22:01.649Z,67.02
2023-06-03T22:24:30.858Z,67.01
2023-06-03T22:26:54.969Z,67.26
2023-06-03T22:29:24.186Z,67.18
2023-06-03T22:31:55.353Z,66.88
2023-06-03T22:34:26.639Z,66.44
2023-06-03T22:36:59.009Z,65.91
2023-06-03T22:39:30.600Z,65.59
2023-06-03T22:42:02.186Z,66.17
2023-06-03T22:44:26.519Z,66.36
2023-06-03T22:46:57.410Z,66.75
2023-06-03T22:49:21.153Z,66.90
2023-06-03T22:51:52.395Z,66.82
2023-06-03T22:54:24.416Z,66.62
2023-06-03T22:56:44.515Z,67.31
2023-06-03T22:59:11.125Z,67.86
2023-06-03T23:01:33.978Z,68.42
2023-06-03T23:03:59.566Z,68.40
2023-06-03T23:06:18.305Z,68.24
2023-06-03T23:08:41.219Z,68.42
2023-06-03T23:11:12.334Z,68.55
2023-06-03T23:13:43.408Z,68.86
2023-06-03T23:16:14.222Z,69.29
2023-06-03T23:18:31.967Z,69.35
2023-06-03T23:20:49.247Z,69.67
2023-06-03T23:23:19.895Z,69.85
2023-06-03T23:25:52.214Z,69.88
2023-06-03T23:28:16.764Z,70.57
2023-06-03T23:30:40.165Z,69.91
2023-06-03T23:33:06.799Z,70.18
2023-06-03T23:35:38.526Z,70.00
2023-06-03T23:38:09.899Z,69.97
2023-06-03T23:40:40.762Z,70.14
2023-06-03T23:43:11.853Z,69.42
2023-06-03T23:45:42.760Z,68.68
2023-06-03T23:48:07.779Z,68.69
2023-06-03T23:50:27.057Z,67.93
2023-06-03T23:52:52.556Z,66.62
2023-06-03T23:55:23.409Z,67.06
2023-06-03T23:57:54.565Z,67.23
